ADDS METAR Data INFO
IDs: Format: Raw Decoded Include TAF

Data at: 0929 UTC 17 Oct 2017

PAMD 170847Z AUTO 27015G20KT 10SM -RA BKN029 BKN034 OVC055 03/02 A2950 RMK AO2 P0004
PAMD 170830Z AUTO 27014G20KT 8SM -RA SCT023 BKN033 OVC055 03/02 A2949 RMK AO2 P0004
PAMD 170732Z AUTO 23008KT 10SM -RA SCT016 BKN022 OVC038 04/03 A2950 RMK AO2 RAB30 P0000
PAMD 170551Z AUTO 35005KT 10SM BKN046 OVC055 06/01 A2949 RMK AO2 SLP978 60003 T00560011 10072 20044 51009
PAMD 170451Z AUTO 03008KT 10SM FEW027 SCT046 SCT060 04/02 A2949 RMK AO2 RAB0359E42 SLP976 P0003 T00440017
PAMD 170440Z AUTO 02008KT 10SM -RA FEW021 BKN042 OVC070 04/02 A2948 RMK AO2 RAB0359 P0003
PAMD 170403Z AUTO 31013G19KT 10SM -RA BKN019 BKN032 BKN075 05/02 A2947 RMK AO2 RAB0359 P0000
PAMD 170351Z AUTO 01005KT 10SM FEW030 SCT075 05/02 A2948 RMK AO2 SLP972 T00500022
PAMD 170307Z AUTO 03009KT 10SM SCT020 SCT027 BKN037 05/02 A2947 RMK AO2
PAMD 170251Z AUTO 03006KT 10SM SCT022 SCT038 BKN046 06/02 A2946 RMK AO2 SLP968 T00560022 52008
PAMD 170245Z AUTO 01007KT 10SM SCT022 BKN046 06/02 A2946 RMK AO2
PAMD 170219Z AUTO 33007KT 10SM BKN026 BKN036 OVC080 06/02 A2946 RMK AO2
PAMD 170151Z AUTO 02008KT 10SM FEW022 BKN046 OVC055 06/02 A2946 RMK AO2 SLP966 T00610022
PAMD 170037Z AUTO 36006KT 10SM SCT018 SCT026 OVC037 06/02 A2945 RMK AO2
PAMD 162359Z AUTO 36009KT 10SM SCT021 SCT026 BKN037 06/03 A2944 RMK AO2
PAMD 162351Z AUTO 01007KT 10SM BKN021 BKN026 OVC037 07/03 A2944 RMK AO2 SLP961 60001 T00670028 10078 20044 51015
PAMD 162251Z AUTO 01008KT 10SM OVC021 06/03 A2943 RMK AO2 RAB20E49 SLP957 P0000 T00560033
PAMD 162230Z AUTO 02009KT 9SM -RA BKN021 BKN039 BKN049 06/03 A2943 RMK AO2 RAB20 P0000
PAMD 162151Z AUTO 04013KT 10SM FEW035 06/03 A2942 RMK AO2 SLP953 T00610028
PAMD 162106Z AUTO 04012KT 10SM SCT017 BKN030 OVC040 07/03 A2941 RMK AO2
PAMD 162051Z AUTO 04017G21KT 10SM SCT019 BKN024 OVC032 08/04 A2940 RMK AO2 RAE08B37E51 SLP946 P0000 60001 T00780044 53001
PAMD 162001Z AUTO 25006KT 10SM -RA SCT022 BKN030 OVC044 07/04 A2938 RMK AO2 P0000
PAMD 161951Z AUTO 17003KT 10SM -RA FEW025 OVC029 06/04 A2938 RMK AO2 RAB08 SLP940 P0001 T00610039
PAMD 161946Z AUTO 14010KT 10SM -RA OVC029 06/04 A2938 RMK AO2 RAB08 P0001
PAMD 161851Z AUTO 24011KT 10SM SCT018 BKN026 BKN043 06/03 A2939 RMK AO2 RAE17 SLP943 P0000 T00560028
PAMD 161827Z AUTO 25012G17KT 10SM SCT016 BKN023 BKN045 05/03 A2939 RMK AO2 RAE17 P0000
PAMD 161816Z AUTO 25010G16KT 10SM -RA BKN014 BKN025 OVC045 05/03 A2939 RMK AO2 P0000
PAMD 161808Z AUTO 26010G15KT 10SM -RA SCT014 BKN033 OVC045 05/03 A2939 RMK AO2 P0000
PAMD 161759Z AUTO 24005G14KT 6SM -RA BR BKN014 BKN026 OVC033 04/03 A2939 RMK AO2 P0000
PAMD 161651Z AUTO 27008KT 7SM -RA FEW014 BKN021 OVC036 04/03 A2941 RMK AO2 RAB23 SLP948 P0001 T00440028
PAMD 161629Z AUTO 28007G17KT 220V300 8SM -RA FEW019 BKN028 04/02 A2941 RMK AO2 RAB23 P0000
PAMD 161451Z AUTO 18007KT 10SM FEW017 SCT022 BKN036 03/01 A2942 RMK AO2 SLP954 T00330011 55001
PAMD 161351Z AUTO 27007KT 10SM BKN019 05/02 A2942 RMK AO2 SLP953 T00500017
PAMD 161316Z AUTO 29007KT 10SM OVC016 05/02 A2942 RMK AO2
PAMD 161239Z AUTO 32007KT 10SM BKN014 04/02 A2942 RMK AO2
PAMD 161228Z AUTO 32006KT 10SM SCT016 04/02 A2942 RMK AO2
PAMD 161209Z AUTO 32007KT 10SM BKN016 04/03 A2942 RMK AO2
PAMD 161151Z AUTO 32008KT 10SM SCT012 04/02 A2943 RMK AO2 SLP955 T00440022 10067 20044 51001
PAMD 160951Z AUTO 32010KT 10SM FEW045 06/03 A2943 RMK AO2 SLP955 T00560028
PAMD 160651Z AUTO 21008KT 10SM CLR 07/M01 A2941 RMK AO2 SLP950 T00671006
PAMD 152351Z AUTO 25013KT 10SM CLR 09/M01 A2940 RMK AO2 SLP948 T00891011 10094 20072 51004
PAMD 152251Z AUTO 26013G17KT 10SM CLR 09/02 A2940 RMK AO2 SLP948 T00940017
PAMD 152151Z AUTO 27012G17KT 10SM CLR 08/M01 A2940 RMK AO2 SLP947 T00831006